sensor_id;sensor_type;location;lat;lon;timestamp;pressure;altitude;pressure_sealevel;temperature;humidity
50065;BME280;64524;47.848;-122.338;2023-05-08T00:00:58;101483.69;;;15.30;100.00
50065;BME280;64524;47.848;-122.338;2023-05-08T00:11:19;101476.11;;;15.12;100.00
50065;BME280;64524;47.848;-122.338;2023-05-08T00:52:58;101474.17;;;14.57;100.00
50065;BME280;64524;47.848;-122.338;2023-05-08T01:06:02;101471.13;;;14.68;100.00
50065;BME280;64524;47.848;-122.338;2023-05-08T01:16:14;101462.60;;;14.71;100.00
50065;BME280;64524;47.848;-122.338;2023-05-08T01:56:07;101443.71;;;15.27;100.00
50065;BME280;64524;47.848;-122.338;2023-05-08T02:02:19;101437.79;;;15.32;100.00
50065;BME280;64524;47.848;-122.338;2023-05-08T02:15:09;101434.98;;;15.27;100.00
50065;BME280;64524;47.848;-122.338;2023-05-08T02:18:29;101437.21;;;15.17;100.00
50065;BME280;64524;47.848;-122.338;2023-05-08T02:41:52;101421.24;;;14.45;100.00
50065;BME280;64524;47.848;-122.338;2023-05-08T03:05:22;101439.27;;;14.10;100.00
50065;BME280;64524;47.848;-122.338;2023-05-08T03:11:40;101441.95;;;13.99;100.00
50065;BME280;64524;47.848;-122.338;2023-05-08T03:20:58;101448.08;;;13.82;100.00
50065;BME280;64524;47.848;-122.338;2023-05-08T03:23:33;101448.37;;;13.77;100.00
50065;BME280;64524;47.848;-122.338;2023-05-08T03:29:35;101452.24;;;13.65;100.00
50065;BME280;64524;47.848;-122.338;2023-05-08T03:32:11;101451.14;;;13.59;100.00
50065;BME280;64524;47.848;-122.338;2023-05-08T03:34:42;101451.60;;;13.53;100.00
50065;BME280;64524;47.848;-122.338;2023-05-08T03:37:21;101453.27;;;13.48;100.00
50065;BME280;64524;47.848;-122.338;2023-05-08T03:39:50;101454.23;;;13.41;100.00
50065;BME280;64524;47.848;-122.338;2023-05-08T03:42:33;101456.61;;;13.35;100.00
50065;BME280;64524;47.848;-122.338;2023-05-08T03:45:23;101457.35;;;13.29;100.00
50065;BME280;64524;47.848;-122.338;2023-05-08T03:48:09;101461.42;;;13.20;100.00
50065;BME280;64524;47.848;-122.338;2023-05-08T03:50:46;101460.29;;;13.13;100.00
50065;BME280;64524;47.848;-122.338;2023-05-08T03:53:17;101464.40;;;13.09;100.00
50065;BME280;64524;47.848;-122.338;2023-05-08T03:55:49;101462.41;;;13.02;100.00
50065;BME280;64524;47.848;-122.338;2023-05-08T03:58:32;101463.88;;;12.95;100.00
50065;BME280;64524;47.848;-122.338;2023-05-08T04:01:17;101468.67;;;12.90;100.00
50065;BME280;64524;47.848;-122.338;2023-05-08T04:04:06;101471.41;;;12.87;100.00
50065;BME280;64524;47.848;-122.338;2023-05-08T04:06:48;101470.71;;;12.87;100.00
50065;BME280;64524;47.848;-122.338;2023-05-08T04:12:39;101466.50;;;12.83;100.00
50065;BME280;64524;47.848;-122.338;2023-05-08T04:15:28;101469.80;;;12.83;100.00
50065;BME280;64524;47.848;-122.338;2023-05-08T04:18:31;101468.55;;;12.81;100.00
50065;BME280;64524;47.848;-122.338;2023-05-08T04:21:41;101475.13;;;12.80;100.00
50065;BME280;64524;47.848;-122.338;2023-05-08T04:24:41;101474.27;;;12.80;100.00
50065;BME280;64524;47.848;-122.338;2023-05-08T04:35:00;101479.61;;;12.76;100.00
50065;BME280;64524;47.848;-122.338;2023-05-08T04:48:19;101483.77;;;12.63;100.00
50065;BME280;64524;47.848;-122.338;2023-05-08T05:04:34;101487.42;;;12.43;100.00
50065;BME280;64524;47.848;-122.338;2023-05-08T05:07:45;101489.30;;;12.40;100.00
50065;BME280;64524;47.848;-122.338;2023-05-08T05:31:13;101491.98;;;12.04;100.00
50065;BME280;64524;47.848;-122.338;2023-05-08T06:12:38;101479.26;;;11.24;100.00
50065;BME280;64524;47.848;-122.338;2023-05-08T06:19:38;101475.96;;;11.16;100.00
50065;BME280;64524;47.848;-122.338;2023-05-08T07:18:21;101469.58;;;10.85;100.00
50065;BME280;64524;47.848;-122.338;2023-05-08T07:49:00;101451.57;;;11.18;100.00
50065;BME280;64524;47.848;-122.338;2023-05-08T07:55:40;101449.47;;;11.26;100.00
50065;BME280;64524;47.848;-122.338;2023-05-08T08:02:14;101442.10;;;11.30;100.00
50065;BME280;64524;47.848;-122.338;2023-05-08T08:22:11;101426.13;;;11.47;100.00
50065;BME280;64524;47.848;-122.338;2023-05-08T08:25:16;101428.28;;;11.50;100.00
50065;BME280;64524;47.848;-122.338;2023-05-08T08:32:00;101422.88;;;11.58;100.00
50065;BME280;64524;47.848;-122.338;2023-05-08T09:19:48;101406.13;;;11.35;100.00
50065;BME280;64524;47.848;-122.338;2023-05-08T09:22:42;101400.77;;;11.27;100.00
50065;BME280;64524;47.848;-122.338;2023-05-08T09:25:15;101397.59;;;11.24;100.00
50065;BME280;64524;47.848;-122.338;2023-05-08T09:31:06;101394.13;;;11.16;100.00
50065;BME280;64524;47.848;-122.338;2023-05-08T09:34:06;101392.33;;;11.12;100.00
50065;BME280;64524;47.848;-122.338;2023-05-08T09:36:36;101391.89;;;11.08;100.00
50065;BME280;64524;47.848;-122.338;2023-05-08T09:39:30;101394.58;;;11.04;100.00
50065;BME280;64524;47.848;-122.338;2023-05-08T09:42:03;101391.72;;;11.00;100.00
50065;BME280;64524;47.848;-122.338;2023-05-08T09:44:44;101391.29;;;10.96;100.00
50065;BME280;64524;47.848;-122.338;2023-05-08T09:47:18;101394.87;;;10.93;100.00
50065;BME280;64524;47.848;-122.338;2023-05-08T09:50:07;101391.86;;;10.90;100.00
50065;BME280;64524;47.848;-122.338;2023-05-08T09:52:48;101392.30;;;10.86;100.00
50065;BME280;64524;47.848;-122.338;2023-05-08T09:55:47;101394.66;;;10.83;100.00
50065;BME280;64524;47.848;-122.338;2023-05-08T09:58:20;101394.25;;;10.80;100.00
50065;BME280;64524;47.848;-122.338;2023-05-08T10:01:06;101392.34;;;10.79;100.00
50065;BME280;64524;47.848;-122.338;2023-05-08T10:03:49;101390.91;;;10.78;100.00
50065;BME280;64524;47.848;-122.338;2023-05-08T10:06:36;101388.27;;;10.76;100.00
50065;BME280;64524;47.848;-122.338;2023-05-08T10:09:13;101387.17;;;10.73;100.00
50065;BME280;64524;47.848;-122.338;2023-05-08T10:12:18;101388.52;;;10.71;100.00
50065;BME280;64524;47.848;-122.338;2023-05-08T10:14:50;101387.05;;;10.68;100.00
50065;BME280;64524;47.848;-122.338;2023-05-08T10:17:40;101381.44;;;10.64;100.00
50065;BME280;64524;47.848;-122.338;2023-05-08T10:20:37;101381.05;;;10.63;100.00
50065;BME280;64524;47.848;-122.338;2023-05-08T10:23:32;101379.52;;;10.64;100.00
50065;BME280;64524;47.848;-122.338;2023-05-08T10:26:29;101377.66;;;10.66;100.00
50065;BME280;64524;47.848;-122.338;2023-05-08T10:32:23;101374.55;;;10.74;100.00
50065;BME280;64524;47.848;-122.338;2023-05-08T10:35:12;101375.52;;;10.79;100.00
50065;BME280;64524;47.848;-122.338;2023-05-08T10:37:48;101372.47;;;10.82;100.00
50065;BME280;64524;47.848;-122.338;2023-05-08T10:40:48;101376.02;;;10.86;100.00
50065;BME280;64524;47.848;-122.338;2023-05-08T10:46:53;101376.57;;;10.96;100.00
50065;BME280;64524;47.848;-122.338;2023-05-08T10:58:55;101377.91;;;11.11;100.00
50065;BME280;64524;47.848;-122.338;2023-05-08T11:01:33;101379.33;;;11.12;100.00
50065;BME280;64524;47.848;-122.338;2023-05-08T11:04:30;101379.02;;;11.15;100.00
50065;BME280;64524;47.848;-122.338;2023-05-08T11:06:59;101376.65;;;11.18;100.00
50065;BME280;64524;47.848;-122.338;2023-05-08T11:10:34;101382.08;;;11.21;100.00
50065;BME280;64524;47.848;-122.338;2023-05-08T11:12:57;101382.70;;;11.25;100.00
50065;BME280;64524;47.848;-122.338;2023-05-08T11:29:23;101387.61;;;11.28;100.00
50065;BME280;64524;47.848;-122.338;2023-05-08T11:31:53;101381.03;;;11.29;100.00
50065;BME280;64524;47.848;-122.338;2023-05-08T11:35:06;101381.21;;;11.29;100.00
50065;BME280;64524;47.848;-122.338;2023-05-08T11:38:13;101377.91;;;11.28;100.00
50065;BME280;64524;47.848;-122.338;2023-05-08T11:46:53;101379.30;;;11.29;100.00
50065;BME280;64524;47.848;-122.338;2023-05-08T11:49:29;101377.23;;;11.29;100.00
50065;BME280;64524;47.848;-122.338;2023-05-08T11:52:02;101376.91;;;11.31;100.00
50065;BME280;64524;47.848;-122.338;2023-05-08T11:54:44;101369.65;;;11.32;100.00
50065;BME280;64524;47.848;-122.338;2023-05-08T11:57:16;101372.41;;;11.31;100.00
50065;BME280;64524;47.848;-122.338;2023-05-08T12:00:10;101372.56;;;11.30;100.00
50065;BME280;64524;47.848;-122.338;2023-05-08T12:02:50;101373.38;;;11.27;100.00
50065;BME280;64524;47.848;-122.338;2023-05-08T12:05:35;101373.99;;;11.24;100.00
50065;BME280;64524;47.848;-122.338;2023-05-08T12:08:08;101380.33;;;11.19;100.00
50065;BME280;64524;47.848;-122.338;2023-05-08T12:10:58;101379.01;;;11.14;100.00
50065;BME280;64524;47.848;-122.338;2023-05-08T12:13:35;101376.48;;;11.09;100.00
50065;BME280;64524;47.848;-122.338;2023-05-08T12:16:10;101375.73;;;11.06;100.00
50065;BME280;64524;47.848;-122.338;2023-05-08T12:21:25;101376.59;;;10.98;100.00
50065;BME280;64524;47.848;-122.338;2023-05-08T12:24:09;101376.67;;;10.93;100.00
50065;BME280;64524;47.848;-122.338;2023-05-08T12:26:38;101378.33;;;10.89;100.00
50065;BME280;64524;47.848;-122.338;2023-05-08T12:29:08;101374.29;;;10.86;100.00
50065;BME280;64524;47.848;-122.338;2023-05-08T12:31:37;101379.73;;;10.82;100.00
50065;BME280;64524;47.848;-122.338;2023-05-08T12:34:07;101375.02;;;10.81;100.00
50065;BME280;64524;47.848;-122.338;2023-05-08T12:37:01;101373.71;;;10.77;100.00
50065;BME280;64524;47.848;-122.338;2023-05-08T12:39:36;101372.23;;;10.71;100.00
50065;BME280;64524;47.848;-122.338;2023-05-08T12:42:08;101371.64;;;10.68;100.00
50065;BME280;64524;47.848;-122.338;2023-05-08T12:44:37;101367.77;;;10.65;100.00
50065;BME280;64524;47.848;-122.338;2023-05-08T12:47:06;101366.30;;;10.62;100.00
50065;BME280;64524;47.848;-122.338;2023-05-08T12:49:36;101367.09;;;10.58;100.00
50065;BME280;64524;47.848;-122.338;2023-05-08T12:52:07;101365.28;;;10.55;100.00
50065;BME280;64524;47.848;-122.338;2023-05-08T12:54:47;101367.15;;;10.53;100.00
50065;BME280;64524;47.848;-122.338;2023-05-08T13:00:20;101362.61;;;10.51;100.00
50065;BME280;64524;47.848;-122.338;2023-05-08T13:02:58;101363.44;;;10.50;100.00
50065;BME280;64524;47.848;-122.338;2023-05-08T13:08:57;101356.44;;;10.46;100.00
50065;BME280;64524;47.848;-122.338;2023-05-08T13:18:10;101346.67;;;10.44;100.00
50065;BME280;64524;47.848;-122.338;2023-05-08T13:20:54;101342.17;;;10.44;100.00
50065;BME280;64524;47.848;-122.338;2023-05-08T13:23:27;101345.29;;;10.44;100.00
50065;BME280;64524;47.848;-122.338;2023-05-08T13:26:18;101345.80;;;10.43;100.00
50065;BME280;64524;47.848;-122.338;2023-05-08T13:29:06;101344.72;;;10.42;100.00
50065;BME280;64524;47.848;-122.338;2023-05-08T13:31:35;101346.41;;;10.40;100.00
50065;BME280;64524;47.848;-122.338;2023-05-08T13:34:28;101345.19;;;10.40;100.00
50065;BME280;64524;47.848;-122.338;2023-05-08T13:37:17;101347.29;;;10.40;100.00
50065;BME280;64524;47.848;-122.338;2023-05-08T13:39:50;101348.02;;;10.41;100.00
50065;BME280;64524;47.848;-122.338;2023-05-08T13:42:23;101350.14;;;10.44;100.00
50065;BME280;64524;47.848;-122.338;2023-05-08T13:44:53;101352.12;;;10.47;100.00
50065;BME280;64524;47.848;-122.338;2023-05-08T13:47:22;101352.91;;;10.51;100.00
50065;BME280;64524;47.848;-122.338;2023-05-08T13:53:13;101347.65;;;10.64;100.00
50065;BME280;64524;47.848;-122.338;2023-05-08T13:55:45;101353.98;;;10.69;100.00
50065;BME280;64524;47.848;-122.338;2023-05-08T14:01:27;101363.21;;;10.80;100.00
50065;BME280;64524;47.848;-122.338;2023-05-08T14:03:56;101366.43;;;10.84;100.00
50065;BME280;64524;47.848;-122.338;2023-05-08T14:06:37;101370.86;;;10.88;100.00
50065;BME280;64524;47.848;-122.338;2023-05-08T14:09:07;101370.08;;;10.92;100.00
50065;BME280;64524;47.848;-122.338;2023-05-08T14:11:48;101368.75;;;10.95;100.00
50065;BME280;64524;47.848;-122.338;2023-05-08T14:14:40;101370.40;;;11.00;100.00
50065;BME280;64524;47.848;-122.338;2023-05-08T14:17:30;101376.21;;;11.05;100.00
50065;BME280;64524;47.848;-122.338;2023-05-08T14:19:59;101375.80;;;11.10;100.00
50065;BME280;64524;47.848;-122.338;2023-05-08T14:22:55;101378.64;;;11.13;100.00
50065;BME280;64524;47.848;-122.338;2023-05-08T14:25:51;101376.64;;;11.18;100.00
50065;BME280;64524;47.848;-122.338;2023-05-08T14:28:38;101374.13;;;11.22;100.00
50065;BME280;64524;47.848;-122.338;2023-05-08T14:31:10;101376.28;;;11.25;100.00
50065;BME280;64524;47.848;-122.338;2023-05-08T14:33:39;101370.43;;;11.28;100.00
50065;BME280;64524;47.848;-122.338;2023-05-08T14:36:09;101377.59;;;11.30;100.00
50065;BME280;64524;47.848;-122.338;2023-05-08T14:38:38;101376.91;;;11.31;100.00
50065;BME280;64524;47.848;-122.338;2023-05-08T14:44:13;101379.10;;;11.36;100.00
50065;BME280;64524;47.848;-122.338;2023-05-08T14:57:12;101384.38;;;11.50;100.00
50065;BME280;64524;47.848;-122.338;2023-05-08T14:59:48;101386.01;;;11.53;100.00
50065;BME280;64524;47.848;-122.338;2023-05-08T15:16:55;101386.64;;;11.50;100.00
50065;BME280;64524;47.848;-122.338;2023-05-08T15:19:44;101386.62;;;11.49;100.00
50065;BME280;64524;47.848;-122.338;2023-05-08T15:22:15;101388.51;;;11.48;100.00
50065;BME280;64524;47.848;-122.338;2023-05-08T15:24:47;101385.00;;;11.46;100.00
50065;BME280;64524;47.848;-122.338;2023-05-08T15:38:11;101383.97;;;11.37;100.00
50065;BME280;64524;47.848;-122.338;2023-05-08T15:47:22;101378.58;;;11.27;100.00
50065;BME280;64524;47.848;-122.338;2023-05-08T15:50:32;101376.96;;;11.24;100.00
50065;BME280;64524;47.848;-122.338;2023-05-08T15:53:01;101378.64;;;11.22;100.00
50065;BME280;64524;47.848;-122.338;2023-05-08T15:55:30;101371.13;;;11.19;100.00
50065;BME280;64524;47.848;-122.338;2023-05-08T16:12:01;101361.85;;;11.14;100.00
50065;BME280;64524;47.848;-122.338;2023-05-08T16:14:51;101357.85;;;11.13;100.00
50065;BME280;64524;47.848;-122.338;2023-05-08T16:22:09;101355.20;;;11.12;100.00
50065;BME280;64524;47.848;-122.338;2023-05-08T16:47:14;101360.14;;;11.33;100.00
50065;BME280;64524;47.848;-122.338;2023-05-08T16:49:44;101364.70;;;11.36;100.00
50065;BME280;64524;47.848;-122.338;2023-05-08T16:52:13;101365.45;;;11.40;100.00
50065;BME280;64524;47.848;-122.338;2023-05-08T16:57:42;101360.73;;;11.47;100.00
50065;BME280;64524;47.848;-122.338;2023-05-08T17:07:23;101363.75;;;11.61;100.00
50065;BME280;64524;47.848;-122.338;2023-05-08T17:33:41;101364.47;;;12.12;100.00
50065;BME280;64524;47.848;-122.338;2023-05-08T17:39:52;101357.16;;;12.22;100.00
50065;BME280;64524;47.848;-122.338;2023-05-08T17:48:42;101358.58;;;12.36;100.00
50065;BME280;64524;47.848;-122.338;2023-05-08T18:04:58;101357.46;;;12.55;100.00
50065;BME280;64524;47.848;-122.338;2023-05-08T18:07:50;101357.67;;;12.58;100.00
50065;BME280;64524;47.848;-122.338;2023-05-08T18:14:02;101364.55;;;12.65;100.00
50065;BME280;64524;47.848;-122.338;2023-05-08T18:25:54;101364.00;;;12.63;100.00
50065;BME280;64524;47.848;-122.338;2023-05-08T18:32:23;101363.77;;;12.59;100.00
50065;BME280;64524;47.848;-122.338;2023-05-08T18:59:22;101359.88;;;12.80;100.00
50065;BME280;64524;47.848;-122.338;2023-05-08T19:02:31;101359.59;;;12.83;100.00
50065;BME280;64524;47.848;-122.338;2023-05-08T19:15:49;101350.97;;;12.90;100.00
50065;BME280;64524;47.848;-122.338;2023-05-08T19:18:27;101350.17;;;12.96;100.00
50065;BME280;64524;47.848;-122.338;2023-05-08T19:21:16;101352.12;;;12.99;100.00
50065;BME280;64524;47.848;-122.338;2023-05-08T19:30:44;101349.09;;;13.08;100.00
50065;BME280;64524;47.848;-122.338;2023-05-08T19:33:45;101344.25;;;13.11;100.00
50065;BME280;64524;47.848;-122.338;2023-05-08T19:43:38;101341.98;;;13.26;100.00
50065;BME280;64524;47.848;-122.338;2023-05-08T19:50:08;101332.39;;;13.37;100.00
50065;BME280;64524;47.848;-122.338;2023-05-08T19:52:53;101326.36;;;13.42;100.00
50065;BME280;64524;47.848;-122.338;2023-05-08T19:55:52;101323.44;;;13.48;100.00
50065;BME280;64524;47.848;-122.338;2023-05-08T19:58:53;101313.23;;;13.53;100.00
50065;BME280;64524;47.848;-122.338;2023-05-08T20:01:46;101309.08;;;13.56;100.00
50065;BME280;64524;47.848;-122.338;2023-05-08T20:08:18;101305.50;;;13.65;100.00
50065;BME280;64524;47.848;-122.338;2023-05-08T20:10:53;101303.10;;;13.70;100.00
50065;BME280;64524;47.848;-122.338;2023-05-08T20:13:37;101300.35;;;13.74;100.00
50065;BME280;64524;47.848;-122.338;2023-05-08T20:19:11;101297.30;;;13.84;100.00
50065;BME280;64524;47.848;-122.338;2023-05-08T20:21:58;101295.92;;;13.87;100.00
50065;BME280;64524;47.848;-122.338;2023-05-08T20:25:08;101295.58;;;13.89;100.00
50065;BME280;64524;47.848;-122.338;2023-05-08T20:27:37;101290.39;;;13.93;100.00
50065;BME280;64524;47.848;-122.338;2023-05-08T20:30:12;101289.73;;;13.96;100.00
50065;BME280;64524;47.848;-122.338;2023-05-08T20:33:05;101282.26;;;13.99;100.00
50065;BME280;64524;47.848;-122.338;2023-05-08T20:35:38;101280.52;;;13.99;100.00
50065;BME280;64524;47.848;-122.338;2023-05-08T20:38:22;101275.98;;;14.01;100.00
50065;BME280;64524;47.848;-122.338;2023-05-08T20:47:59;101266.63;;;14.07;100.00
50065;BME280;64524;47.848;-122.338;2023-05-08T20:50:59;101268.73;;;14.08;100.00
50065;BME280;64524;47.848;-122.338;2023-05-08T20:53:52;101267.52;;;14.11;100.00
50065;BME280;64524;47.848;-122.338;2023-05-08T21:03:29;101270.03;;;14.24;100.00
50065;BME280;64524;47.848;-122.338;2023-05-08T21:06:31;101269.55;;;14.30;100.00
50065;BME280;64524;47.848;-122.338;2023-05-08T21:15:42;101263.21;;;14.54;100.00
50065;BME280;64524;47.848;-122.338;2023-05-08T21:18:32;101266.94;;;14.61;100.00
50065;BME280;64524;47.848;-122.338;2023-05-08T21:21:30;101262.77;;;14.69;100.00
50065;BME280;64524;47.848;-122.338;2023-05-08T21:24:34;101257.75;;;14.78;100.00
50065;BME280;64524;47.848;-122.338;2023-05-08T21:27:25;101255.34;;;14.89;100.00
50065;BME280;64524;47.848;-122.338;2023-05-08T21:33:06;101253.13;;;15.17;100.00
50065;BME280;64524;47.848;-122.338;2023-05-08T21:36:28;101251.92;;;15.26;100.00
50065;BME280;64524;47.848;-122.338;2023-05-08T21:38:56;101249.84;;;15.37;100.00
50065;BME280;64524;47.848;-122.338;2023-05-08T21:44:44;101255.42;;;15.55;100.00
50065;BME280;64524;47.848;-122.338;2023-05-08T21:47:13;101258.03;;;15.61;100.00
50065;BME280;64524;47.848;-122.338;2023-05-08T21:49:42;101256.98;;;15.65;100.00
50065;BME280;64524;47.848;-122.338;2023-05-08T21:52:32;101259.44;;;15.70;100.00
50065;BME280;64524;47.848;-122.338;2023-05-08T21:55:01;101260.30;;;15.71;100.00
50065;BME280;64524;47.848;-122.338;2023-05-08T21:57:35;101257.69;;;15.73;100.00
50065;BME280;64524;47.848;-122.338;2023-05-08T22:04:08;101255.42;;;15.74;100.00
50065;BME280;64524;47.848;-122.338;2023-05-08T22:07:13;101257.70;;;15.75;100.00
50065;BME280;64524;47.848;-122.338;2023-05-08T22:10:03;101257.02;;;15.77;100.00
50065;BME280;64524;47.848;-122.338;2023-05-08T22:12:49;101257.70;;;15.81;100.00
50065;BME280;64524;47.848;-122.338;2023-05-08T22:15:23;101259.10;;;15.84;100.00
50065;BME280;64524;47.848;-122.338;2023-05-08T22:17:57;101261.70;;;15.84;100.00
50065;BME280;64524;47.848;-122.338;2023-05-08T22:20:35;101263.64;;;15.85;100.00
50065;BME280;64524;47.848;-122.338;2023-05-08T22:23:13;101259.46;;;15.83;100.00
50065;BME280;64524;47.848;-122.338;2023-05-08T22:25:45;101259.10;;;15.82;100.00
50065;BME280;64524;47.848;-122.338;2023-05-08T22:28:24;101258.41;;;15.79;100.00
50065;BME280;64524;47.848;-122.338;2023-05-08T22:36:29;101261.88;;;15.61;100.00
50065;BME280;64524;47.848;-122.338;2023-05-08T22:41:49;101255.07;;;15.45;100.00
50065;BME280;64524;47.848;-122.338;2023-05-08T22:47:21;101254.54;;;15.32;100.00
50065;BME280;64524;47.848;-122.338;2023-05-08T22:50:01;101254.00;;;15.25;100.00
50065;BME280;64524;47.848;-122.338;2023-05-08T22:55:31;101253.65;;;15.16;100.00
50065;BME280;64524;47.848;-122.338;2023-05-08T23:08:36;101255.88;;;14.91;100.00
50065;BME280;64524;47.848;-122.338;2023-05-08T23:11:14;101256.92;;;14.91;100.00
50065;BME280;64524;47.848;-122.338;2023-05-08T23:14:04;101260.23;;;14.92;100.00
50065;BME280;64524;47.848;-122.338;2023-05-08T23:16:38;101261.10;;;14.93;100.00
50065;BME280;64524;47.848;-122.338;2023-05-08T23:19:11;101260.23;;;14.94;100.00
50065;BME280;64524;47.848;-122.338;2023-05-08T23:21:40;101260.75;;;14.94;100.00
50065;BME280;64524;47.848;-122.338;2023-05-08T23:24:09;101262.68;;;14.96;100.00
50065;BME280;64524;47.848;-122.338;2023-05-08T23:26:38;101263.38;;;14.98;100.00
50065;BME280;64524;47.848;-122.338;2023-05-08T23:29:08;101254.83;;;14.97;100.00
50065;BME280;64524;47.848;-122.338;2023-05-08T23:31:38;101256.41;;;14.97;100.00
50065;BME280;64524;47.848;-122.338;2023-05-08T23:34:20;101256.23;;;14.95;100.00
50065;BME280;64524;47.848;-122.338;2023-05-08T23:36:49;101252.73;;;14.92;100.00
50065;BME280;64524;47.848;-122.338;2023-05-08T23:39:18;101253.25;;;14.89;100.00
50065;BME280;64524;47.848;-122.338;2023-05-08T23:41:48;101256.21;;;14.87;100.00
50065;BME280;64524;47.848;-122.338;2023-05-08T23:44:20;101258.47;;;14.85;100.00
50065;BME280;64524;47.848;-122.338;2023-05-08T23:50:41;101253.39;;;14.81;100.00
50065;BME280;64524;47.848;-122.338;2023-05-08T23:53:31;101252.54;;;14.80;100.00
50065;BME280;64524;47.848;-122.338;2023-05-08T23:56:04;101251.83;;;14.81;100.00
50065;BME280;64524;47.848;-122.338;2023-05-08T23:58:41;101256.36;;;14.82;100.00
